Time;durP1;ratioP1;P1;durP2;ratioP2;P2;SDS_P1;SDS_P2;PMS_P1;PMS_P2;Temp;Humidity;BMP_temperature;BMP_pressure;BME280_temperature;BME280_humidity;BME280_pressure;Samples;Min_cycle;Max_cycle;Signal;HPM_P1;HPM_P2
2021/01/11 00:01:59;;;;;;;1.40;1.40;;;;;;;-0.54;100.00;101745.87;4405562;32;20195;-73
2021/01/11 00:04:25;;;;;;;1.45;1.45;;;;;;;-1.48;100.00;101587.13;4415582;32;20072;-72
2021/01/11 00:06:50;;;;;;;1.40;1.40;;;;;;;-0.80;100.00;101714.44;4409877;32;20573;-73
2021/01/11 00:09:16;;;;;;;1.30;1.30;;;;;;;-0.59;100.00;101726.97;4411627;32;20060;-75
2021/01/11 00:11:42;;;;;;;1.40;1.40;;;;;;;-0.83;100.00;101688.41;4408801;32;20173;-74
2021/01/11 00:14:07;;;;;;;1.50;1.50;;;;;;;-0.65;100.00;101722.19;4404748;32;20087;-74
2021/01/11 00:16:33;;;;;;;1.40;1.40;;;;;;;-0.74;100.00;101712.31;4390232;32;20712;-74
2021/01/11 00:18:59;;;;;;;1.73;1.73;;;;;;;-0.73;100.00;101711.37;4398143;32;20076;-74
2021/01/11 00:21:24;;;;;;;1.50;1.50;;;;;;;-0.66;100.00;101728.37;4385788;32;20092;-71
2021/01/11 00:23:50;;;;;;;2.08;1.98;;;;;;;-0.74;100.00;101710.53;4391759;32;20095;-73
2021/01/11 00:26:15;;;;;;;1.77;1.77;;;;;;;-0.70;100.00;101716.41;4390141;32;20468;-73
2021/01/11 00:28:41;;;;;;;1.30;1.30;;;;;;;-0.77;100.00;101718.63;4394877;32;20310;-73
2021/01/11 00:31:06;;;;;;;1.30;1.30;;;;;;;-0.93;100.00;101697.87;4391193;32;20071;-73
2021/01/11 00:33:32;;;;;;;1.27;1.27;;;;;;;-1.18;100.00;101667.25;4390644;32;20131;-72
2021/01/11 00:35:57;;;;;;;1.50;1.50;;;;;;;-1.05;100.00;101704.84;4391256;32;20273;-73
2021/01/11 00:38:23;;;;;;;1.80;1.70;;;;;;;-1.18;100.00;101699.59;4385530;32;20088;-74
2021/01/11 00:40:48;;;;;;;1.70;1.70;;;;;;;-1.28;100.00;101695.94;4393050;32;20085;-73
2021/01/11 00:43:14;;;;;;;1.48;1.48;;;;;;;-1.82;100.00;101625.34;4386045;32;20167;-72
2021/01/11 00:45:39;;;;;;;1.35;1.35;;;;;;;-1.42;100.00;101711.81;4387791;32;20515;-73
2021/01/11 00:48:05;;;;;;;1.40;1.40;;;;;;;-1.58;100.00;101699.72;4392801;32;20065;-73
2021/01/11 00:50:30;;;;;;;1.60;1.60;;;;;;;-1.84;100.00;101663.97;4391239;32;20063;-72
2021/01/11 00:52:56;;;;;;;1.30;1.30;;;;;;;-1.62;100.00;101703.53;4404461;32;20096;-73
2021/01/11 00:55:21;;;;;;;1.40;1.40;;;;;;;-2.06;100.00;101643.59;4385357;32;20076;-72
2021/01/11 00:57:47;;;;;;;1.40;1.40;;;;;;;-1.76;100.00;101706.22;4411002;32;20096;-73
2021/01/11 01:00:13;;;;;;;1.40;1.40;;;;;;;-1.74;100.00;101717.47;4386930;32;20170;-74
2021/01/11 01:02:38;;;;;;;1.45;1.45;;;;;;;-1.95;100.00;101689.12;4387965;32;20072;-73
2021/01/11 01:05:09;;;;;;;1.60;1.60;;;;;;;-1.75;100.00;101710.53;4401114;32;20099;-74
2021/01/11 01:07:37;;;;;;;1.85;1.80;;;;;;;-1.74;100.00;101713.06;4389369;32;20824;-73
2021/01/11 01:10:04;;;;;;;1.75;1.65;;;;;;;-1.72;100.00;101720.81;4387413;32;20064;-73
2021/01/11 01:12:29;;;;;;;1.30;1.30;;;;;;;-1.76;100.00;101714.09;4394330;32;20087;-74
2021/01/11 01:14:55;;;;;;;1.20;1.20;;;;;;;-1.74;100.00;101727.97;4399442;32;20691;-72
2021/01/11 01:17:20;;;;;;;1.33;1.33;;;;;;;-1.74;100.00;101734.03;4397220;32;20558;-72
2021/01/11 01:19:46;;;;;;;1.48;1.48;;;;;;;-1.75;100.00;101728.91;4397848;32;20088;-73
2021/01/11 01:22:11;;;;;;;1.37;1.37;;;;;;;-1.77;100.00;101722.91;4399022;32;20068;-73
2021/01/11 01:24:36;;;;;;;1.30;1.30;;;;;;;-1.76;100.00;101720.19;4429286;32;20786;-72
2021/01/11 01:27:02;;;;;;;1.60;1.60;;;;;;;-1.77;100.00;101728.16;4411044;32;20084;-72
2021/01/11 01:29:27;;;;;;;2.10;2.00;;;;;;;-1.79;100.00;101732.69;4410294;32;20068;-73
2021/01/11 01:31:52;;;;;;;1.40;1.40;;;;;;;-2.00;100.00;101712.19;4431586;32;20072;-72
2021/01/11 01:34:18;;;;;;;1.23;1.23;;;;;;;-1.90;100.00;101729.00;4409667;32;20091;-71
2021/01/11 01:36:43;;;;;;;1.40;1.40;;;;;;;-1.87;100.00;101730.53;4415270;32;20615;-73
2021/01/11 01:39:08;;;;;;;2.03;1.92;;;;;;;-1.86;100.00;101731.38;4401618;32;20091;-72
2021/01/11 01:41:34;;;;;;;1.70;1.62;;;;;;;-1.90;100.00;101726.38;4404906;32;20137;-72
2021/01/11 01:43:59;;;;;;;1.40;1.40;;;;;;;-1.95;100.00;101715.34;4423084;32;20125;-73
2021/01/11 01:46:25;;;;;;;1.48;1.48;;;;;;;-1.91;100.00;101732.53;4398709;32;20133;-73
2021/01/11 01:48:50;;;;;;;1.37;1.37;;;;;;;-1.91;100.00;101722.06;4403871;32;20073;-72
2021/01/11 01:51:15;;;;;;;1.55;1.55;;;;;;;-1.79;100.00;101724.81;4402756;32;20056;-74
2021/01/11 01:53:44;;;;;;;1.92;1.90;;;;;;;-1.65;100.00;101739.63;4407855;32;20087;-72
2021/01/11 01:56:10;;;;;;;1.50;1.50;;;;;;;-1.56;100.00;101731.13;4397056;32;20153;-73
2021/01/11 01:58:35;;;;;;;1.40;1.40;;;;;;;-1.48;100.00;101733.19;4413444;32;20080;-72
2021/01/11 02:01:01;;;;;;;1.62;1.62;;;;;;;-1.40;100.00;101731.72;4398443;32;20680;-74
2021/01/11 02:03:26;;;;;;;1.80;1.80;;;;;;;-2.34;100.00;101570.25;4406760;32;20071;-74
2021/01/11 02:05:52;;;;;;;1.45;1.45;;;;;;;-1.45;100.00;101701.50;4425260;32;20189;-72
2021/01/11 02:08:22;;;;;;;1.35;1.35;;;;;;;-1.17;100.00;101721.47;4406917;32;20079;-73
2021/01/11 02:11:10;;;;;;;1.27;1.27;;;;;;;-1.12;100.00;101723.75;4423526;32;20080;-72
2021/01/11 02:13:45;;;;;;;1.50;1.50;;;;;;;-2.22;100.00;101534.53;4399986;32;20088;-74
2021/01/11 02:16:28;;;;;;;1.23;1.23;;;;;;;-1.79;100.00;101593.69;4424664;32;20115;-74
2021/01/11 02:19:16;;;;;;;1.30;1.30;;;;;;;-0.99;100.00;101716.69;4425594;32;20064;-73
2021/01/11 02:21:50;;;;;;;1.60;1.60;;;;;;;-0.97;100.00;101710.41;4412389;32;20522;-73
2021/01/11 02:24:53;;;;;;;1.35;1.35;;;;;;;-0.94;100.00;101714.56;4422121;32;20127;-73
2021/01/11 02:27:20;;;;;;;1.50;1.50;;;;;;;-0.93;100.00;101711.00;4438135;32;20057;-73
2021/01/11 02:30:10;;;;;;;1.50;1.50;;;;;;;-0.91;100.00;101706.50;4399286;32;20139;-72
2021/01/11 02:32:48;;;;;;;1.40;1.40;;;;;;;-0.97;100.00;101693.78;4417982;32;20076;-73
2021/01/11 02:35:14;;;;;;;1.70;1.70;;;;;;;-1.23;100.00;101645.75;4410072;32;20091;-73
2021/01/11 02:37:40;;;;;;;1.70;1.70;;;;;;;-1.04;100.00;101679.41;4393989;32;20645;-71
2021/01/11 02:40:06;;;;;;;1.25;1.25;;;;;;;-0.85;100.00;101708.66;4402167;32;20518;-73
2021/01/11 02:42:32;;;;;;;1.50;1.50;;;;;;;-0.90;100.00;101696.81;4388252;32;20138;-72
2021/01/11 02:44:57;;;;;;;1.80;1.70;;;;;;;-0.86;100.00;101708.75;4389727;32;20096;-72
2021/01/11 02:47:32;;;;;;;1.50;1.50;;;;;;;-2.05;100.00;101529.91;4392245;32;20080;-73
2021/01/11 02:49:57;;;;;;;1.40;1.40;;;;;;;-0.81;100.00;101712.75;4382766;32;20088;-73
2021/01/11 02:52:46;;;;;;;1.50;1.50;;;;;;;-0.80;100.00;101709.16;4393361;32;20130;-73
2021/01/11 02:55:13;;;;;;;1.40;1.40;;;;;;;-0.99;100.00;101680.75;4406553;32;20069;-72
2021/01/11 02:57:41;;;;;;;1.40;1.40;;;;;;;-0.77;100.00;101713.38;4384037;32;20069;-73
2021/01/11 03:00:07;;;;;;;1.37;1.37;;;;;;;-0.78;100.00;101712.56;4415951;32;20072;-73
2021/01/11 03:02:35;;;;;;;1.40;1.40;;;;;;;-0.79;100.00;101710.88;4385635;32;20092;-73
2021/01/11 03:05:01;;;;;;;1.70;1.60;;;;;;;-0.89;99.98;101688.81;4388707;32;20088;-73
2021/01/11 03:07:26;;;;;;;1.40;1.40;;;;;;;-0.80;100.00;101703.09;4385980;32;20166;-73
2021/01/11 03:09:52;;;;;;;1.50;1.50;;;;;;;-1.35;100.00;101631.69;4395260;32;20072;-73
2021/01/11 03:12:17;;;;;;;1.30;1.30;;;;;;;-0.82;99.70;101700.56;4395236;32;20602;-72
2021/01/11 03:14:42;;;;;;;1.30;1.30;;;;;;;-1.55;98.88;101585.87;4406454;32;20079;-73
2021/01/11 03:17:08;;;;;;;1.48;1.48;;;;;;;-0.82;99.50;101695.31;4414323;32;20735;-72
2021/01/11 03:19:33;;;;;;;1.30;1.30;;;;;;;-0.83;99.46;101688.41;4414553;32;20199;-73
2021/01/11 03:21:59;;;;;;;1.52;1.52;;;;;;;-0.85;98.95;101685.03;4400325;32;20266;-73
2021/01/11 03:24:24;;;;;;;1.55;1.50;;;;;;;-0.80;98.98;101690.78;4405890;32;20186;-73
2021/01/11 03:26:50;;;;;;;1.30;1.30;;;;;;;-0.84;99.07;101678.84;4406014;32;20079;-73
2021/01/11 03:29:16;;;;;;;1.40;1.40;;;;;;;-0.89;99.01;101673.06;4403750;32;20658;-74
2021/01/11 03:31:42;;;;;;;1.35;1.35;;;;;;;-0.86;98.35;101678.09;4424168;32;20659;-72
2021/01/11 03:34:07;;;;;;;1.30;1.30;;;;;;;-0.87;98.16;101668.53;4399572;32;20056;-73
2021/01/11 03:36:33;;;;;;;1.30;1.30;;;;;;;-0.89;98.70;101669.62;4411816;32;20088;-73
2021/01/11 03:38:58;;;;;;;1.40;1.40;;;;;;;-1.04;98.16;101653.97;4404513;32;20712;-72
2021/01/11 03:41:24;;;;;;;1.20;1.20;;;;;;;-0.98;98.76;101663.22;4406448;32;20731;-73
2021/01/11 03:43:49;;;;;;;1.40;1.40;;;;;;;-0.97;98.51;101657.00;4419334;32;20091;-73
2021/01/11 03:46:16;;;;;;;1.50;1.50;;;;;;;-1.00;98.56;101652.84;4401595;32;20060;-73
2021/01/11 03:48:42;;;;;;;1.40;1.40;;;;;;;-1.05;99.15;101646.22;4408726;32;20064;-73
2021/01/11 03:51:07;;;;;;;1.30;1.30;;;;;;;-1.28;99.18;101618.97;4416573;32;20078;-72
2021/01/11 03:53:32;;;;;;;1.30;1.30;;;;;;;-1.15;98.91;101644.25;4404203;32;20107;-72
2021/01/11 03:55:58;;;;;;;1.50;1.50;;;;;;;-1.16;99.11;101658.31;4414586;32;20549;-72
2021/01/11 03:58:23;;;;;;;1.30;1.30;;;;;;;-1.19;99.63;101665.56;4406284;32;20356;-73
2021/01/11 04:00:49;;;;;;;1.40;1.40;;;;;;;-1.21;99.56;101670.94;4418002;32;20067;-72
2021/01/11 04:03:15;;;;;;;1.30;1.30;;;;;;;-1.21;99.70;101668.31;4425618;32;20648;-72
2021/01/11 04:05:47;;;;;;;1.33;1.33;;;;;;;-1.23;99.83;101672.81;4408186;32;20689;-73
2021/01/11 04:08:13;;;;;;;1.30;1.30;;;;;;;-1.22;99.48;101664.00;4408925;32;20095;-72
2021/01/11 04:10:38;;;;;;;1.80;1.80;;;;;;;-1.23;99.69;101669.38;4415498;32;20083;-73
2021/01/11 04:13:04;;;;;;;1.83;1.73;;;;;;;-1.22;100.00;101664.00;4404486;32;20669;-73
2021/01/11 04:15:29;;;;;;;1.40;1.40;;;;;;;-1.20;99.97;101664.75;4399994;32;20522;-73
2021/01/11 04:17:55;;;;;;;1.60;1.60;;;;;;;-1.16;99.99;101674.06;4398783;32;20089;-72
2021/01/11 04:20:20;;;;;;;1.30;1.30;;;;;;;-1.12;99.97;101672.09;4410428;32;20140;-73
2021/01/11 04:22:45;;;;;;;1.40;1.40;;;;;;;-1.12;100.00;101665.97;4411329;32;20174;-72
2021/01/11 04:25:11;;;;;;;1.30;1.30;;;;;;;-1.20;99.87;101643.75;4414652;32;20087;-73
2021/01/11 04:27:36;;;;;;;1.30;1.30;;;;;;;-1.02;99.49;101664.37;4410088;32;20150;-72
2021/01/11 04:30:06;;;;;;;1.70;1.70;;;;;;;-0.97;98.96;101664.88;4422099;32;20065;-74
2021/01/11 04:32:34;;;;;;;2.40;2.30;;;;;;;-1.11;98.63;101634.38;4409937;32;20250;-72
2021/01/11 04:35:03;;;;;;;1.42;1.42;;;;;;;-0.89;97.86;101672.25;4412130;32;20523;-73
2021/01/11 04:37:28;;;;;;;2.10;2.00;;;;;;;-0.83;98.72;101666.53;4411806;32;20206;-72
2021/01/11 04:39:54;;;;;;;1.62;1.62;;;;;;;-0.80;98.19;101666.31;4406024;32;20099;-74
2021/01/11 04:42:29;;;;;;;1.40;1.40;;;;;;;-0.97;98.70;101643.87;4397919;32;20134;-73
2021/01/11 04:44:55;;;;;;;1.60;1.60;;;;;;;-0.77;98.96;101666.94;4417886;32;20065;-72
2021/01/11 04:47:23;;;;;;;1.33;1.33;;;;;;;-0.75;98.99;101666.81;4413681;32;20092;-72
2021/01/11 04:49:49;;;;;;;1.48;1.48;;;;;;;-0.74;99.22;101659.75;4409475;32;20095;-74
2021/01/11 04:52:16;;;;;;;1.20;1.20;;;;;;;-0.73;99.51;101659.66;4409269;32;20529;-72
2021/01/11 04:54:41;;;;;;;1.40;1.40;;;;;;;-0.70;99.08;101663.87;4406037;32;20088;-72
2021/01/11 04:57:07;;;;;;;1.50;1.50;;;;;;;-0.70;99.36;101669.94;4410284;32;20123;-71
2021/01/11 04:59:32;;;;;;;1.50;1.50;;;;;;;-0.67;100.00;101675.00;4407801;32;20060;-72
2021/01/11 05:01:57;;;;;;;1.40;1.40;;;;;;;-0.66;100.00;101679.28;4405168;32;20069;-72
2021/01/11 05:04:23;;;;;;;1.27;1.27;;;;;;;-0.66;100.00;101666.12;4413729;32;20068;-73
2021/01/11 05:06:48;;;;;;;1.42;1.42;;;;;;;-0.65;100.00;101657.31;4405729;32;20069;-72
2021/01/11 05:09:16;;;;;;;1.92;1.85;;;;;;;-0.72;100.00;101631.62;4410663;32;20208;-72
2021/01/11 05:11:41;;;;;;;1.60;1.60;;;;;;;-0.61;100.00;101653.50;4408534;32;20080;-71
2021/01/11 05:14:07;;;;;;;1.40;1.40;;;;;;;-0.64;100.00;101639.75;4413224;32;20576;-72
2021/01/11 05:16:36;;;;;;;1.50;1.50;;;;;;;-0.59;100.00;101658.66;4409118;32;20076;-72
2021/01/11 05:19:23;;;;;;;2.10;1.90;;;;;;;-0.59;100.00;101656.03;4413935;32;20080;-73
2021/01/11 05:21:49;;;;;;;1.40;1.40;;;;;;;-0.57;100.00;101651.50;4422507;32;20087;-72
2021/01/11 05:24:32;;;;;;;1.48;1.48;;;;;;;-0.55;100.00;101631.22;4411442;32;20096;-73
2021/01/11 05:27:05;;;;;;;1.65;1.65;;;;;;;-0.64;100.00;101621.38;4422321;32;20368;-73
2021/01/11 05:29:30;;;;;;;1.40;1.40;;;;;;;-1.19;99.67;101534.31;4410762;32;20488;-73
2021/01/11 05:32:00;;;;;;;2.08;1.98;;;;;;;-0.47;99.50;101647.25;4416077;32;20439;-73
2021/01/11 05:34:44;;;;;;;1.50;1.50;;;;;;;-0.42;99.18;101641.66;4415127;32;20056;-73
2021/01/11 05:37:09;;;;;;;1.70;1.70;;;;;;;-0.39;97.83;101644.06;4432374;32;20669;-72
2021/01/11 05:39:35;;;;;;;2.05;1.95;;;;;;;-0.49;97.10;101609.72;4415958;32;20069;-72
2021/01/11 05:42:00;;;;;;;1.40;1.40;;;;;;;-0.31;97.57;101646.09;4406813;32;20065;-72
2021/01/11 05:44:26;;;;;;;1.50;1.50;;;;;;;-0.31;97.35;101648.72;4410243;32;20518;-73
2021/01/11 05:46:51;;;;;;;1.40;1.40;;;;;;;-0.32;97.55;101647.06;4415772;32;20060;-73
2021/01/11 05:49:16;;;;;;;1.60;1.60;;;;;;;-0.38;97.34;101637.84;4408152;32;20662;-72
2021/01/11 05:51:42;;;;;;;1.30;1.30;;;;;;;-0.30;96.84;101635.47;4416808;32;20172;-73
2021/01/11 05:54:23;;;;;;;1.50;1.50;;;;;;;-0.26;97.01;101639.56;4406901;32;20088;-72
2021/01/11 05:56:52;;;;;;;1.40;1.40;;;;;;;-0.27;97.50;101637.06;4423706;32;20087;-73
2021/01/11 05:59:17;;;;;;;1.62;1.62;;;;;;;-0.36;97.43;101632.47;4439104;32;20087;-73
2021/01/11 06:01:42;;;;;;;1.50;1.50;;;;;;;-0.33;97.50;101624.34;4411908;32;20073;-74
2021/01/11 06:04:08;;;;;;;1.30;1.30;;;;;;;-0.29;98.18;101628.44;4408772;32;20069;-73
2021/01/11 06:06:33;;;;;;;1.60;1.60;;;;;;;-0.28;98.42;101630.09;4411516;32;20076;-73
2021/01/11 06:08:59;;;;;;;1.83;1.80;;;;;;;-0.64;98.62;101568.81;4410845;32;20456;-72
2021/01/11 06:11:25;;;;;;;2.70;1.92;;;;;;;-0.33;98.53;101612.03;4415217;32;20079;-73
2021/01/11 06:13:52;;;;;;;2.00;1.90;;;;;;;-0.49;97.95;101575.56;4408031;32;20173;-72
2021/01/11 06:16:20;;;;;;;1.40;1.40;;;;;;;-0.45;98.68;101577.03;4412907;32;20155;-73
2021/01/11 06:18:49;;;;;;;1.52;1.52;;;;;;;-0.25;98.79;101608.84;4430725;32;20616;-72
2021/01/11 06:21:21;;;;;;;1.30;1.30;;;;;;;-0.37;99.08;101599.25;4406498;32;20696;-73
2021/01/11 06:23:46;;;;;;;1.48;1.48;;;;;;;-0.24;98.36;101618.44;4408301;32;20084;-71
2021/01/11 06:26:33;;;;;;;1.60;1.60;;;;;;;-0.22;98.12;101629.66;4406221;32;20172;-73
2021/01/11 06:28:58;;;;;;;1.50;1.50;;;;;;;-0.25;97.82;101624.62;4419065;32;20945;-73
2021/01/11 06:31:33;;;;;;;1.40;1.40;;;;;;;-0.28;98.33;101624.84;4411729;32;20072;-72
2021/01/11 06:33:59;;;;;;;1.55;1.55;;;;;;;-0.29;97.78;101620.56;4411208;32;20080;-71
2021/01/11 06:36:28;;;;;;;1.50;1.50;;;;;;;-0.35;97.41;101615.75;4416254;32;20171;-72
2021/01/11 06:38:54;;;;;;;2.10;2.00;;;;;;;-0.32;97.29;101623.41;4411248;32;20076;-73
2021/01/11 06:41:20;;;;;;;1.60;1.60;;;;;;;-0.34;97.06;101631.41;4406831;32;20421;-73
2021/01/11 06:43:47;;;;;;;1.50;1.50;;;;;;;-0.34;97.14;101631.41;4412841;32;20211;-73
2021/01/11 06:46:34;;;;;;;1.75;1.75;;;;;;;-0.36;96.92;101630.69;4414351;32;20092;-72
2021/01/11 06:49:01;;;;;;;1.50;1.50;;;;;;;-0.36;96.44;101628.06;4426603;32;20361;-71
2021/01/11 06:51:40;;;;;;;1.60;1.60;;;;;;;-0.61;96.21;101602.75;4408487;32;20092;-72
2021/01/11 06:54:10;;;;;;;1.60;1.60;;;;;;;-0.42;96.08;101639.03;4412987;32;20060;-72
2021/01/11 06:56:39;;;;;;;1.50;1.50;;;;;;;-0.43;96.23;101638.19;4407455;32;20073;-73
2021/01/11 06:59:08;;;;;;;1.60;1.60;;;;;;;-0.53;95.88;101631.94;4410299;32;20145;-72
2021/01/11 07:01:37;;;;;;;1.50;1.50;;;;;;;-0.45;96.11;101645.34;4418988;32;20088;-73
2021/01/11 07:04:03;;;;;;;1.50;1.50;;;;;;;-0.45;96.24;101640.09;4418703;32;20535;-72
2021/01/11 07:06:41;;;;;;;1.58;1.58;;;;;;;-0.46;96.02;101627.91;4410068;32;20195;-72
2021/01/11 07:09:10;;;;;;;1.33;1.33;;;;;;;-0.41;95.81;101617.06;4420022;32;20827;-71
2021/01/11 07:11:37;;;;;;;1.52;1.52;;;;;;;-0.41;95.88;101607.38;4439601;32;20175;-72
2021/01/11 07:14:02;;;;;;;1.60;1.60;;;;;;;-0.38;95.62;101611.53;4409555;32;20091;-72
2021/01/11 07:16:44;;;;;;;1.45;1.45;;;;;;;-0.34;95.73;101614.81;4409659;32;20084;-72
2021/01/11 07:19:10;;;;;;;1.60;1.60;;;;;;;-0.33;95.79;101606.78;4432159;32;20838;-73
2021/01/11 07:21:36;;;;;;;1.60;1.60;;;;;;;-0.31;96.20;101609.31;4413505;32;20072;-74
2021/01/11 07:24:03;;;;;;;2.30;2.03;;;;;;;-0.28;96.02;101614.34;4408941;32;20081;-72
2021/01/11 07:26:28;;;;;;;3.22;2.67;;;;;;;-0.45;96.44;101584.03;4415106;32;20079;-72
2021/01/11 07:29:04;;;;;;;2.00;1.90;;;;;;;-0.29;95.08;101620.56;4427557;32;20458;-73
2021/01/11 07:31:40;;;;;;;1.40;1.40;;;;;;;-0.21;96.18;101626.06;4417982;32;20183;-72
2021/01/11 07:34:18;;;;;;;1.60;1.60;;;;;;;-0.19;95.80;101613.63;4414972;32;20073;-72
2021/01/11 07:36:46;;;;;;;1.60;1.60;;;;;;;-0.21;95.98;101615.53;4410109;32;20072;-73
2021/01/11 07:39:25;;;;;;;1.40;1.40;;;;;;;-0.14;95.81;101608.84;4408383;32;20722;-71
2021/01/11 07:41:53;;;;;;;2.80;1.80;;;;;;;-0.13;96.60;101607.09;4418679;32;20558;-72
2021/01/11 07:44:22;;;;;;;1.42;1.42;;;;;;;-0.50;96.97;101536.25;4413678;32;20451;-73
2021/01/11 07:46:52;;;;;;;1.83;1.73;;;;;;;-0.02;97.40;101602.69;4422919;32;20100;-74
2021/01/11 07:49:17;;;;;;;1.42;1.42;;;;;;;0.01;97.01;101608.66;4408580;32;20079;-74
2021/01/11 07:51:44;;;;;;;1.50;1.50;;;;;;;-0.10;97.50;101591.09;4427494;32;20085;-74
2021/01/11 07:54:12;;;;;;;1.80;1.80;;;;;;;0.04;97.90;101608.44;4412485;32;20061;-74
2021/01/11 07:56:37;;;;;;;1.40;1.40;;;;;;;0.02;97.48;101587.50;4410338;32;20091;-74
2021/01/11 07:59:06;;;;;;;1.40;1.40;;;;;;;0.02;96.01;101599.81;4412951;32;20088;-74
2021/01/11 08:01:33;;;;;;;1.50;1.50;;;;;;;-0.34;95.81;101539.41;4423158;32;20523;-74
2021/01/11 08:03:59;;;;;;;1.90;1.80;;;;;;;0.01;94.94;101603.41;4413070;32;20180;-75
2021/01/11 08:06:24;;;;;;;1.48;1.48;;;;;;;0.02;95.01;101602.44;4406023;32;20607;-74
2021/01/11 08:08:51;;;;;;;1.40;1.40;;;;;;;-0.02;95.03;101594.81;4418528;32;20550;-75
2021/01/11 08:11:16;;;;;;;1.80;1.80;;;;;;;-0.16;94.18;101568.69;4407044;32;20076;-75
2021/01/11 08:13:42;;;;;;;1.60;1.60;;;;;;;-0.24;93.46;101544.81;4412526;32;20145;-75
2021/01/11 08:16:11;;;;;;;1.45;1.45;;;;;;;-0.25;92.88;101553.62;4414340;32;20577;-75
2021/01/11 08:18:38;;;;;;;1.50;1.50;;;;;;;-0.01;93.20;101585.94;4410598;32;20134;-75
2021/01/11 08:21:10;;;;;;;1.37;1.37;;;;;;;-0.67;92.20;101467.44;4404313;32;20602;-75
2021/01/11 08:23:36;;;;;;;1.60;1.60;;;;;;;-0.02;92.88;101572.91;4407181;32;20759;-74
2021/01/11 08:26:09;;;;;;;1.50;1.50;;;;;;;-0.04;92.96;101554.59;4406694;32;20061;-74
2021/01/11 08:28:36;;;;;;;1.50;1.50;;;;;;;0.11;93.28;101560.50;4406683;32;20143;-75
2021/01/11 08:31:01;;;;;;;1.50;1.50;;;;;;;-0.14;92.95;101514.19;4413163;32;20060;-74
2021/01/11 08:33:30;;;;;;;1.50;1.48;;;;;;;-0.09;92.64;101525.19;4410143;32;20077;-74
2021/01/11 08:36:14;;;;;;;1.80;1.70;;;;;;;0.20;91.66;101566.81;4409187;32;20670;-74
2021/01/11 08:39:04;;;;;;;1.55;1.55;;;;;;;0.19;91.06;101573.06;4428086;32;20072;-74
2021/01/11 08:41:32;;;;;;;1.83;1.73;;;;;;;0.18;90.84;101569.56;4429720;32;20087;-76
2021/01/11 08:43:57;;;;;;;1.52;1.52;;;;;;;0.16;89.77;101560.13;4410519;32;20082;-73
2021/01/11 08:46:23;;;;;;;1.60;1.60;;;;;;;-0.03;89.76;101535.25;4425430;32;20080;-73
2021/01/11 08:48:48;;;;;;;1.30;1.30;;;;;;;-0.03;89.61;101529.16;4420024;32;20095;-74
2021/01/11 08:51:25;;;;;;;1.80;1.70;;;;;;;0.06;90.20;101540.75;4408265;32;20103;-75
2021/01/11 08:53:51;;;;;;;1.60;1.60;;;;;;;0.21;89.71;101563.25;4411248;32;20215;-76
2021/01/11 08:56:27;;;;;;;1.50;1.50;;;;;;;0.19;89.78;101552.00;4412854;32;20092;-74
2021/01/11 08:58:53;;;;;;;1.40;1.40;;;;;;;0.24;90.66;101544.56;4409100;32;20088;-75
2021/01/11 09:01:24;;;;;;;1.55;1.55;;;;;;;0.27;90.62;101554.84;4408450;32;20191;-74
2021/01/11 09:04:01;;;;;;;1.70;1.70;;;;;;;0.27;90.75;101551.41;4407309;32;20080;-74
2021/01/11 09:06:42;;;;;;;1.40;1.40;;;;;;;0.33;90.87;101567.56;4423743;32;20090;-76
2021/01/11 09:09:18;;;;;;;1.50;1.50;;;;;;;0.35;90.20;101576.16;4420913;32;20083;-74
2021/01/11 09:11:45;;;;;;;1.50;1.50;;;;;;;0.23;90.59;101563.97;4413332;32;20136;-75
2021/01/11 09:14:19;;;;;;;2.20;2.10;;;;;;;0.37;90.16;101582.13;4410491;32;20076;-74
2021/01/11 09:16:46;;;;;;;2.55;2.35;;;;;;;0.30;90.29;101567.78;4407452;32;20218;-74
2021/01/11 09:19:18;;;;;;;1.30;1.30;;;;;;;0.40;90.76;101569.69;4410063;32;20410;-75
2021/01/11 09:21:44;;;;;;;1.40;1.40;;;;;;;0.44;90.65;101536.91;4412171;32;20088;-74
2021/01/11 09:24:10;;;;;;;2.10;2.00;;;;;;;0.21;90.29;101493.97;4408985;32;20116;-73
2021/01/11 09:26:36;;;;;;;1.73;1.65;;;;;;;0.51;90.44;101543.34;4413320;32;20171;-74
2021/01/11 09:29:02;;;;;;;1.50;1.50;;;;;;;0.56;90.84;101542.03;4414557;32;20072;-74
2021/01/11 09:31:28;;;;;;;1.42;1.42;;;;;;;0.61;90.24;101546.94;4410395;32;20115;-75
2021/01/11 09:33:53;;;;;;;1.40;1.40;;;;;;;0.52;90.99;101534.53;4415237;32;20075;-75
2021/01/11 09:36:20;;;;;;;1.58;1.58;;;;;;;0.54;90.84;101535.22;4404978;32;20073;-74
2021/01/11 09:38:47;;;;;;;1.50;1.50;;;;;;;0.67;90.99;101553.50;4410852;32;20642;-74
2021/01/11 09:41:12;;;;;;;1.45;1.45;;;;;;;0.66;91.18;101550.03;4410571;32;20180;-74
2021/01/11 09:43:37;;;;;;;1.40;1.40;;;;;;;0.67;90.50;101562.25;4414483;32;20502;-75
2021/01/11 09:46:03;;;;;;;1.52;1.52;;;;;;;0.68;91.07;101556.00;4408809;32;20091;-75
2021/01/11 09:48:28;;;;;;;2.17;2.08;;;;;;;0.71;91.29;101552.31;4411955;32;20073;-75
2021/01/11 09:50:54;;;;;;;1.80;1.80;;;;;;;0.68;90.63;101550.75;4418570;32;20072;-75
2021/01/11 09:53:19;;;;;;;1.40;1.40;;;;;;;0.67;90.23;101554.34;4412826;32;20680;-75
2021/01/11 09:55:45;;;;;;;2.05;1.95;;;;;;;0.62;90.17;101546.00;4410491;32;20664;-75
2021/01/11 09:58:15;;;;;;;1.92;1.83;;;;;;;0.68;90.48;101550.75;4409247;32;20091;-75
2021/01/11 10:00:40;;;;;;;1.58;1.58;;;;;;;0.65;90.90;101539.63;4419478;32;20068;-76
2021/01/11 10:03:05;;;;;;;1.40;1.40;;;;;;;0.71;90.15;101539.97;4410989;32;20655;-76
2021/01/11 10:05:31;;;;;;;1.50;1.50;;;;;;;0.66;90.56;101531.59;4424438;32;20146;-76
2021/01/11 10:07:57;;;;;;;1.48;1.48;;;;;;;0.37;89.94;101481.28;4422252;32;20077;-75
2021/01/11 10:10:22;;;;;;;1.60;1.60;;;;;;;0.56;89.98;101509.59;4413774;32;20096;-75
2021/01/11 10:12:47;;;;;;;1.58;1.58;;;;;;;0.65;89.67;101511.50;4408253;32;20574;-75
2021/01/11 10:15:13;;;;;;;1.60;1.60;;;;;;;0.88;89.52;101556.19;4412385;32;20089;-76
2021/01/11 10:17:38;;;;;;;1.50;1.50;;;;;;;0.32;89.18;101460.59;4408829;32;20526;-75
2021/01/11 10:20:06;;;;;;;1.42;1.42;;;;;;;0.87;88.43;101552.72;4406956;32;20095;-75
2021/01/11 10:22:32;;;;;;;1.55;1.55;;;;;;;0.83;87.96;101551.31;4403128;32;20594;-76
2021/01/11 10:24:57;;;;;;;1.48;1.48;;;;;;;0.81;87.72;101541.84;4412843;32;20085;-76
2021/01/11 10:27:23;;;;;;;1.58;1.58;;;;;;;0.49;87.42;101485.56;4407034;32;20069;-75
2021/01/11 10:29:48;;;;;;;2.28;2.17;;;;;;;0.66;87.52;101521.06;4412292;32;20126;-76
2021/01/11 10:32:13;;;;;;;1.50;1.50;;;;;;;0.66;87.12;101534.25;4407481;32;20723;-75
2021/01/11 10:34:39;;;;;;;1.80;1.80;;;;;;;0.59;87.50;101516.41;4411766;32;20689;-74
2021/01/11 10:37:04;;;;;;;1.60;1.60;;;;;;;0.08;87.24;101441.53;4407796;32;20160;-76
2021/01/11 10:39:30;;;;;;;2.00;1.90;;;;;;;0.03;86.25;101422.63;4411904;32;20073;-75
2021/01/11 10:41:56;;;;;;;1.65;1.65;;;;;;;0.55;86.99;101519.31;4412740;32;20116;-74
2021/01/11 10:44:22;;;;;;;1.60;1.60;;;;;;;0.54;87.04;101528.16;4403946;32;20073;-74
2021/01/11 10:46:51;;;;;;;1.50;1.50;;;;;;;0.58;87.17;101522.66;4413791;32;21107;-75
2021/01/11 10:49:17;;;;;;;1.50;1.50;;;;;;;-0.15;87.36;101412.63;4413884;32;20121;-75
2021/01/11 10:51:42;;;;;;;1.40;1.40;;;;;;;0.39;87.17;101486.44;4411715;32;20080;-74
2021/01/11 10:54:07;;;;;;;1.58;1.58;;;;;;;0.60;87.39;101516.28;4423267;32;20592;-74
2021/01/11 10:56:33;;;;;;;1.50;1.50;;;;;;;0.56;86.77;101509.59;4424560;32;20680;-74
2021/01/11 10:58:58;;;;;;;1.50;1.50;;;;;;;0.33;86.53;101469.34;4411589;32;20087;-75
2021/01/11 11:01:24;;;;;;;1.50;1.50;;;;;;;0.60;87.37;101513.66;4409781;32;20083;-74
2021/01/11 11:03:49;;;;;;;1.70;1.70;;;;;;;0.49;87.60;101480.31;4419291;32;20095;-75
2021/01/11 11:06:15;;;;;;;1.67;1.67;;;;;;;0.69;87.73;101506.81;4412498;32;20077;-76
2021/01/11 11:08:40;;;;;;;1.60;1.60;;;;;;;0.63;87.16;101481.81;4413314;32;20643;-76
2021/01/11 11:11:06;;;;;;;1.50;1.50;;;;;;;-0.21;87.23;101334.22;4406990;32;20945;-75
2021/01/11 11:13:32;;;;;;;1.42;1.42;;;;;;;0.74;87.57;101487.06;4412488;32;20080;-75
2021/01/11 11:15:58;;;;;;;1.60;1.60;;;;;;;0.70;87.44;101464.56;4417237;32;20945;-74
2021/01/11 11:18:23;;;;;;;2.08;1.98;;;;;;;0.79;87.42;101462.97;4411209;32;20087;-74
2021/01/11 11:20:48;;;;;;;1.50;1.50;;;;;;;0.75;87.21;101448.41;4408155;32;20665;-75
2021/01/11 11:23:16;;;;;;;2.70;2.50;;;;;;;0.88;88.07;101472.78;4411191;32;20065;-77
2021/01/11 11:25:45;;;;;;;1.48;1.48;;;;;;;0.62;87.91;101414.34;4412999;32;20094;-74
2021/01/11 11:28:10;;;;;;;1.45;1.45;;;;;;;0.95;88.08;101454.66;4416374;32;20069;-74